Time;durP1;ratioP1;P1;durP2;ratioP2;P2;SDS_P1;SDS_P2;PMS_P1;PMS_P2;Temp;Humidity;BMP_temperature;BMP_pressure;BME280_temperature;BME280_humidity;BME280_pressure;Samples;Min_cycle;Max_cycle;Signal;HPM_P1;HPM_P2
2023/01/10 00:00:40;;;;;;;;;;;;;;;5.14;74.87;97492.56;5004937;28;20392;-59
2023/01/10 00:03:32;;;;;;;;;;;;;;;5.20;74.26;97498.69;5009991;28;19937;-59
2023/01/10 00:06:27;;;;;;;;;;;;;;;5.25;74.03;97501.34;5010143;28;20291;-59
2023/01/10 00:08:56;;;;;;;;;;;;;;;5.17;74.49;97500.09;4992070;28;19937;-59
2023/01/10 00:14:12;;;;;;;;;;;;;;;5.10;74.97;97499.59;5012095;28;19925;-59
2023/01/10 00:16:41;;;;;;;;;;;;;;;5.15;75.48;97507.63;5007697;28;19932;-58
2023/01/10 00:19:10;;;;;;;;;;;;;;;5.17;75.16;97510.84;5009294;28;19956;-59
2023/01/10 00:21:39;;;;;;;;;;;;;;;5.19;74.92;97524.03;5012479;28;19932;-60
2023/01/10 00:24:14;;;;;;;;;;;;;;;5.24;75.01;97524.78;5010653;28;20673;-59
2023/01/10 00:27:11;;;;;;;;;;;;;;;5.26;74.76;97529.88;5014022;28;19925;-59
2023/01/10 00:30:12;;;;;;;;;;;;;;;5.29;74.35;97528.50;4991269;28;19925;-67
2023/01/10 00:32:41;;;;;;;;;;;;;;;5.19;74.50;97524.81;5011382;28;19926;-59
2023/01/10 00:35:09;;;;;;;;;;;;;;;5.21;74.98;97528.03;5010598;28;20015;-61
2023/01/10 00:37:43;;;;;;;;;;;;;;;5.18;74.89;97527.81;5010784;28;20412;-59
2023/01/10 00:40:12;;;;;;;;;;;;;;;5.12;75.61;97529.75;4996967;28;19937;-60
2023/01/10 00:45:26;;;;;;;;;;;;;;;5.29;74.68;97541.97;5005592;28;19934;-61
2023/01/10 00:47:56;;;;;;;;;;;;;;;5.20;74.52;97541.78;5009700;28;19932;-60
2023/01/10 00:50:26;;;;;;;;;;;;;;;5.22;75.15;97548.50;4993952;28;20024;-60
2023/01/10 00:52:56;;;;;;;;;;;;;;;5.21;74.67;97552.25;5011642;28;20020;-59
2023/01/10 00:55:24;;;;;;;;;;;;;;;5.20;74.71;97547.97;5010171;28;19926;-59
2023/01/10 00:57:52;;;;;;;;;;;;;;;5.16;74.88;97557.69;5013892;28;19932;-60
2023/01/10 01:00:48;;;;;;;;;;;;;;;5.17;75.08;97566.59;5002252;28;20579;-58
2023/01/10 01:06:09;;;;;;;;;;;;;;;5.23;74.16;97568.16;5005813;28;19933;-59
2023/01/10 01:08:38;;;;;;;;;;;;;;;5.22;74.58;97572.75;5010147;28;19929;-61
2023/01/10 01:11:07;;;;;;;;;;;;;;;5.22;74.75;97575.44;5004992;28;19932;-61
2023/01/10 01:13:36;;;;;;;;;;;;;;;5.14;75.59;97578.75;5012053;28;19929;-59
2023/01/10 01:16:04;;;;;;;;;;;;;;;5.11;75.67;97590.06;4987113;28;19933;-60
2023/01/10 01:18:32;;;;;;;;;;;;;;;5.18;75.08;97587.06;5010087;28;19926;-59
2023/01/10 01:21:04;;;;;;;;;;;;;;;5.18;75.19;97598.63;5008635;28;19929;-65
2023/01/10 01:23:33;;;;;;;;;;;;;;;5.22;75.23;97606.97;5010231;28;19937;-59
2023/01/10 01:26:04;;;;;;;;;;;;;;;5.21;74.69;97603.44;5008154;28;19992;-59
2023/01/10 01:28:32;;;;;;;;;;;;;;;5.23;75.04;97609.34;4990379;28;20763;-65
2023/01/10 01:31:06;;;;;;;;;;;;;;;5.15;75.44;97623.44;5003760;28;19926;-59
2023/01/10 01:33:34;;;;;;;;;;;;;;;5.10;75.69;97620.78;5009245;28;19929;-59
2023/01/10 01:36:01;;;;;;;;;;;;;;;5.22;75.37;97629.31;4993220;28;20271;-59
2023/01/10 01:38:29;;;;;;;;;;;;;;;5.23;75.32;97635.50;4992059;28;20342;-61
2023/01/10 01:40:57;;;;;;;;;;;;;;;5.08;75.71;97641.81;5002735;28;19937;-60
2023/01/10 01:43:26;;;;;;;;;;;;;;;5.11;75.31;97638.53;4993637;28;19972;-62
2023/01/10 01:45:57;;;;;;;;;;;;;;;5.14;75.31;97637.19;5002110;28;19975;-59
2023/01/10 01:48:28;;;;;;;;;;;;;;;5.12;75.33;97642.84;5011512;28;19925;-58
2023/01/10 01:51:04;;;;;;;;;;;;;;;5.03;75.78;97641.84;4992263;28;19930;-61
2023/01/10 01:53:33;;;;;;;;;;;;;;;5.11;75.35;97652.00;5008554;28;20033;-60
2023/01/10 01:56:02;;;;;;;;;;;;;;;5.11;75.63;97653.88;5009480;28;19925;-61
2023/01/10 01:58:34;;;;;;;;;;;;;;;5.05;75.69;97650.44;5006110;28;20461;-59
2023/01/10 02:01:03;;;;;;;;;;;;;;;5.03;75.94;97655.31;4987327;28;20426;-60
2023/01/10 02:03:33;;;;;;;;;;;;;;;5.00;76.28;97663.94;5007470;28;19929;-59
2023/01/10 02:06:01;;;;;;;;;;;;;;;5.03;76.02;97666.06;5008732;28;19932;-59
2023/01/10 02:08:30;;;;;;;;;;;;;;;5.04;75.97;97669.56;5012997;28;19926;-59
2023/01/10 02:11:00;;;;;;;;;;;;;;;5.07;75.79;97671.72;5013127;28;19933;-59
2023/01/10 02:13:28;;;;;;;;;;;;;;;5.07;75.88;97677.09;5014978;28;20020;-59
2023/01/10 02:15:57;;;;;;;;;;;;;;;5.06;75.85;97676.31;5005402;28;20415;-59
2023/01/10 02:18:25;;;;;;;;;;;;;;;5.02;75.97;97675.25;5015046;28;19926;-59
2023/01/10 02:21:11;;;;;;;;;;;;;;;5.02;76.43;97680.63;5013159;28;19941;-59
2023/01/10 02:23:44;;;;;;;;;;;;;;;5.08;76.06;97676.81;5013073;28;19925;-59
2023/01/10 02:26:19;;;;;;;;;;;;;;;5.09;76.28;97681.09;5012082;28;19929;-59
2023/01/10 02:28:55;;;;;;;;;;;;;;;5.06;76.28;97676.31;5008843;28;19929;-60
2023/01/10 02:31:38;;;;;;;;;;;;;;;4.97;76.58;97680.66;5003877;28;19926;-61
2023/01/10 02:34:08;;;;;;;;;;;;;;;5.04;76.59;97683.84;4994662;28;19926;-60
2023/01/10 02:36:38;;;;;;;;;;;;;;;5.03;76.62;97687.63;5015144;28;19932;-63
2023/01/10 02:39:08;;;;;;;;;;;;;;;5.11;76.29;97695.06;5010541;28;20363;-59
2023/01/10 02:41:38;;;;;;;;;;;;;;;5.08;76.30;97695.66;5014737;28;19930;-64
2023/01/10 02:44:09;;;;;;;;;;;;;;;5.15;76.30;97701.53;5011070;28;19929;-59
2023/01/10 02:46:37;;;;;;;;;;;;;;;5.10;76.39;97700.75;5009614;28;19930;-61
2023/01/10 02:49:05;;;;;;;;;;;;;;;5.11;75.74;97697.78;4997545;28;19929;-59
2023/01/10 02:51:35;;;;;;;;;;;;;;;5.16;75.53;97707.72;4996889;28;19925;-59
2023/01/10 02:54:06;;;;;;;;;;;;;;;5.07;76.02;97704.03;5013719;28;20367;-60
2023/01/10 02:56:39;;;;;;;;;;;;;;;5.10;76.36;97709.63;5004073;28;19933;-59
2023/01/10 02:59:15;;;;;;;;;;;;;;;5.25;75.47;97719.50;5013324;28;19930;-59
2023/01/10 03:04:44;;;;;;;;;;;;;;;5.18;75.74;97732.47;5012945;28;19931;-60
2023/01/10 03:07:39;;;;;;;;;;;;;;;5.15;75.92;97739.22;5009762;28;19991;-59
2023/01/10 03:10:08;;;;;;;;;;;;;;;5.22;76.23;97744.31;5011561;28;20418;-59
2023/01/10 03:12:37;;;;;;;;;;;;;;;5.16;75.99;97748.91;5010612;28;19933;-60
2023/01/10 03:15:06;;;;;;;;;;;;;;;5.18;76.47;97748.66;5007371;28;19967;-63
2023/01/10 03:17:35;;;;;;;;;;;;;;;5.25;76.03;97751.81;5014391;28;19929;-59
2023/01/10 03:20:04;;;;;;;;;;;;;;;5.19;76.24;97751.06;4995171;28;19930;-61
2023/01/10 03:22:35;;;;;;;;;;;;;;;5.22;76.25;97753.19;5016709;28;20012;-59
2023/01/10 03:25:07;;;;;;;;;;;;;;;5.19;76.56;97761.03;5012570;28;19926;-60
2023/01/10 03:27:38;;;;;;;;;;;;;;;5.18;76.57;97762.09;5015134;28;19949;-62
2023/01/10 03:30:10;;;;;;;;;;;;;;;5.20;76.75;97768.00;4987538;28;19933;-61
2023/01/10 03:32:38;;;;;;;;;;;;;;;5.25;76.44;97779.56;5015287;28;19925;-62
2023/01/10 03:35:08;;;;;;;;;;;;;;;5.27;76.45;97787.34;5012249;28;19932;-59
2023/01/10 03:37:37;;;;;;;;;;;;;;;5.21;77.02;97785.78;5013326;28;19926;-59
2023/01/10 03:40:13;;;;;;;;;;;;;;;5.21;76.79;97786.56;5013154;28;19945;-59
2023/01/10 03:45:33;;;;;;;;;;;;;;;5.24;76.17;97796.00;4998665;28;19932;-60
2023/01/10 03:48:04;;;;;;;;;;;;;;;5.30;76.74;97811.03;5013087;28;19932;-59
2023/01/10 03:50:32;;;;;;;;;;;;;;;5.24;76.54;97818.34;5013512;28;19940;-59
2023/01/10 03:53:00;;;;;;;;;;;;;;;5.23;76.52;97824.03;5019220;28;19926;-62
2023/01/10 03:55:29;;;;;;;;;;;;;;;5.24;76.78;97822.94;5013013;28;19929;-64
2023/01/10 04:00:48;;;;;;;;;;;;;;;5.28;76.86;97837.47;5007697;28;20012;-62
2023/01/10 04:03:42;;;;;;;;;;;;;;;5.33;76.36;97842.03;5010585;28;19936;-60
2023/01/10 04:06:10;;;;;;;;;;;;;;;5.24;77.07;97844.47;5007706;28;19925;-59
2023/01/10 04:08:40;;;;;;;;;;;;;;;5.21;77.04;97856.59;5011922;28;19965;-59
2023/01/10 04:11:12;;;;;;;;;;;;;;;5.18;76.97;97859.88;5010922;28;21674;-59
2023/01/10 04:13:41;;;;;;;;;;;;;;;5.24;75.87;97847.97;5012766;28;20320;-59
2023/01/10 04:16:10;;;;;;;;;;;;;;;5.28;76.41;97850.13;5005201;28;19947;-59
2023/01/10 04:18:37;;;;;;;;;;;;;;;5.21;76.18;97867.38;5010999;28;20455;-60
2023/01/10 04:21:06;;;;;;;;;;;;;;;5.24;76.52;97877.59;5010528;28;19926;-59
2023/01/10 04:23:34;;;;;;;;;;;;;;;5.28;76.09;97874.38;5002088;28;19957;-59
2023/01/10 04:26:02;;;;;;;;;;;;;;;5.21;76.44;97875.44;5011542;28;19925;-59
2023/01/10 04:28:31;;;;;;;;;;;;;;;5.17;77.17;97881.69;5012437;28;19932;-59
2023/01/10 04:31:00;;;;;;;;;;;;;;;5.16;76.94;97894.31;4987180;28;20326;-60
2023/01/10 04:33:28;;;;;;;;;;;;;;;5.11;77.19;97899.75;5012561;28;20295;-59
2023/01/10 04:35:56;;;;;;;;;;;;;;;5.19;77.39;97907.25;4984866;28;19925;-61
2023/01/10 04:38:24;;;;;;;;;;;;;;;5.19;77.21;97901.88;5016425;28;20302;-59
2023/01/10 04:40:53;;;;;;;;;;;;;;;5.21;77.42;97909.66;4993524;28;19925;-60
2023/01/10 04:43:21;;;;;;;;;;;;;;;5.18;77.04;97916.41;5002403;28;19929;-59
2023/01/10 04:45:50;;;;;;;;;;;;;;;5.19;77.02;97917.22;5009000;28;19936;-59
2023/01/10 04:48:18;;;;;;;;;;;;;;;5.18;77.58;97926.41;5011126;28;19930;-59
2023/01/10 04:50:50;;;;;;;;;;;;;;;5.14;77.37;97930.72;5013335;28;19929;-63
2023/01/10 04:53:19;;;;;;;;;;;;;;;5.20;77.20;97935.00;4992620;28;20888;-59
2023/01/10 04:55:47;;;;;;;;;;;;;;;5.20;76.99;97940.38;5011199;28;19948;-59
2023/01/10 05:04:29;;;;;;;;;;;;;;;5.18;76.64;97946.03;5011839;28;19992;-61
2023/01/10 05:06:58;;;;;;;;;;;;;;;5.13;76.65;97947.94;5011438;28;20406;-59
2023/01/10 05:09:26;;;;;;;;;;;;;;;5.15;76.57;97953.84;5009902;28;19932;-60
2023/01/10 05:11:54;;;;;;;;;;;;;;;5.17;76.88;97959.81;5009730;28;19925;-63
2023/01/10 05:17:15;;;;;;;;;;;;;;;5.16;76.16;97980.50;4989466;28;19944;-65
2023/01/10 05:19:43;;;;;;;;;;;;;;;5.14;76.52;97985.38;5010988;28;19933;-60
2023/01/10 05:22:11;;;;;;;;;;;;;;;5.18;76.35;97988.34;5010016;28;19937;-60
2023/01/10 05:24:39;;;;;;;;;;;;;;;5.17;76.50;97997.50;5012354;28;19968;-60
2023/01/10 05:27:08;;;;;;;;;;;;;;;5.12;76.49;98000.22;5009525;28;19967;-58
2023/01/10 05:30:01;;;;;;;;;;;;;;;5.19;76.16;98004.22;5011461;28;19926;-59
2023/01/10 05:32:30;;;;;;;;;;;;;;;5.12;76.35;98014.47;4999646;28;20317;-59
2023/01/10 05:34:58;;;;;;;;;;;;;;;5.21;75.86;98012.81;4995762;28;19936;-58
2023/01/10 05:37:26;;;;;;;;;;;;;;;5.22;76.01;98014.44;5011517;28;20383;-58
2023/01/10 05:39:54;;;;;;;;;;;;;;;5.21;75.49;98028.16;5011114;28;19980;-58
2023/01/10 05:42:22;;;;;;;;;;;;;;;5.20;75.37;98021.97;5016814;28;19929;-58
2023/01/10 05:44:52;;;;;;;;;;;;;;;5.12;75.49;98025.25;4997584;28;19996;-59
2023/01/10 05:47:24;;;;;;;;;;;;;;;5.21;75.47;98039.75;5007952;28;19925;-58
2023/01/10 05:49:53;;;;;;;;;;;;;;;5.12;75.35;98052.19;4987658;28;20304;-60
2023/01/10 05:52:21;;;;;;;;;;;;;;;5.17;74.97;98045.97;5009283;28;19933;-58
2023/01/10 05:54:49;;;;;;;;;;;;;;;5.24;74.84;98051.88;5015048;28;19937;-60
2023/01/10 05:57:19;;;;;;;;;;;;;;;5.26;74.33;98060.47;5014707;28;20394;-62
2023/01/10 05:59:47;;;;;;;;;;;;;;;5.31;74.10;98063.16;5015191;28;19936;-58
2023/01/10 06:02:15;;;;;;;;;;;;;;;5.26;74.41;98072.06;4983790;28;19926;-58
2023/01/10 06:04:43;;;;;;;;;;;;;;;5.28;74.06;98074.50;4997629;28;19979;-58
2023/01/10 06:07:37;;;;;;;;;;;;;;;5.23;74.46;98078.00;5015155;28;19932;-58
2023/01/10 06:10:05;;;;;;;;;;;;;;;5.16;74.53;98090.13;5014829;28;19925;-63
2023/01/10 06:12:33;;;;;;;;;;;;;;;5.28;74.39;98097.94;5014988;28;20488;-59
2023/01/10 06:15:02;;;;;;;;;;;;;;;5.32;74.23;98093.59;4996283;28;19936;-58
2023/01/10 06:17:30;;;;;;;;;;;;;;;5.31;73.99;98102.78;5014300;28;20338;-63
2023/01/10 06:19:58;;;;;;;;;;;;;;;5.30;74.37;98106.56;5013159;28;19980;-59
2023/01/10 06:22:26;;;;;;;;;;;;;;;5.27;74.53;98105.19;5005317;28;19951;-62
2023/01/10 06:24:56;;;;;;;;;;;;;;;5.31;74.40;98105.47;5016704;28;19933;-61
2023/01/10 06:27:25;;;;;;;;;;;;;;;5.32;74.36;98113.25;5013227;28;19925;-58
2023/01/10 06:29:53;;;;;;;;;;;;;;;5.30;73.98;98126.22;5012306;28;20016;-58
2023/01/10 06:32:21;;;;;;;;;;;;;;;5.40;73.59;98133.47;5010468;28;19925;-58
2023/01/10 06:34:49;;;;;;;;;;;;;;;5.26;73.99;98136.72;5013653;28;19949;-59
2023/01/10 06:37:17;;;;;;;;;;;;;;;5.32;73.85;98142.09;5010498;28;19929;-58
2023/01/10 06:39:46;;;;;;;;;;;;;;;5.30;73.67;98139.69;5012080;28;19979;-58
2023/01/10 06:42:15;;;;;;;;;;;;;;;5.36;73.43;98153.94;5010859;28;19925;-59
2023/01/10 06:44:44;;;;;;;;;;;;;;;5.42;72.56;98158.25;5011476;28;20430;-58
2023/01/10 06:47:12;;;;;;;;;;;;;;;5.34;73.15;98167.69;5003328;28;19933;-58
2023/01/10 06:49:39;;;;;;;;;;;;;;;5.31;72.63;98175.50;5013633;28;19925;-59
2023/01/10 06:52:07;;;;;;;;;;;;;;;5.22;73.34;98176.06;4996292;28;20023;-59
2023/01/10 06:57:29;;;;;;;;;;;;;;;5.24;73.41;98179.28;4996438;28;19926;-58
2023/01/10 06:59:57;;;;;;;;;;;;;;;5.29;72.69;98200.03;5013973;28;19925;-59
2023/01/10 07:02:25;;;;;;;;;;;;;;;5.24;72.87;98217.00;5006834;28;19933;-58
2023/01/10 07:04:57;;;;;;;;;;;;;;;5.27;72.72;98215.63;5013159;28;20267;-58
2023/01/10 07:07:30;;;;;;;;;;;;;;;5.24;73.08;98217.00;4998121;28;19926;-58
2023/01/10 07:09:59;;;;;;;;;;;;;;;5.23;73.41;98226.16;5013205;28;20270;-59
2023/01/10 07:12:31;;;;;;;;;;;;;;;5.16;73.61;98232.88;5005534;28;19933;-59
2023/01/10 07:14:59;;;;;;;;;;;;;;;5.11;73.56;98241.75;5007698;28;19929;-59
2023/01/10 07:17:30;;;;;;;;;;;;;;;5.17;73.43;98246.09;4993069;28;20008;-62
2023/01/10 07:20:00;;;;;;;;;;;;;;;5.26;73.31;98244.47;5012659;28;19926;-59
2023/01/10 07:22:53;;;;;;;;;;;;;;;5.21;73.64;98260.63;5012498;28;20375;-59
2023/01/10 07:25:29;;;;;;;;;;;;;;;5.31;73.00;98259.03;5013645;28;19953;-58
2023/01/10 07:27:59;;;;;;;;;;;;;;;5.32;72.48;98261.44;5007842;28;19956;-59
2023/01/10 07:30:28;;;;;;;;;;;;;;;5.19;72.55;98267.38;5005714;28;19929;-59
2023/01/10 07:32:56;;;;;;;;;;;;;;;5.23;72.56;98280.03;5013324;28;19949;-58
2023/01/10 07:35:24;;;;;;;;;;;;;;;5.31;72.46;98285.97;4990138;28;19936;-67
2023/01/10 07:37:52;;;;;;;;;;;;;;;5.28;72.73;98286.50;5009588;28;19933;-62
2023/01/10 07:43:15;;;;;;;;;;;;;;;5.38;71.94;98305.34;5007981;28;19933;-62
2023/01/10 07:45:43;;;;;;;;;;;;;;;5.37;71.71;98301.84;5008482;28;19925;-62
2023/01/10 07:48:11;;;;;;;;;;;;;;;5.45;71.63;98305.91;4988918;28;19925;-63
2023/01/10 07:50:39;;;;;;;;;;;;;;;5.40;71.40;98317.50;4993848;28;19926;-67
2023/01/10 07:53:07;;;;;;;;;;;;;;;5.29;72.39;98317.75;5009064;28;19925;-63
2023/01/10 07:55:37;;;;;;;;;;;;;;;5.32;72.32;98327.97;4970147;28;20013;-63
2023/01/10 07:58:10;;;;;;;;;;;;;;;5.36;72.66;98323.69;4971881;28;19927;-63
2023/01/10 08:07:49;;;;;;;;;;;;;;;5.56;71.91;98341.78;4968894;28;20005;-62
2023/01/10 08:10:17;;;;;;;;;;;;;;;5.50;71.72;98349.03;4965847;28;19941;-63
2023/01/10 08:13:11;;;;;;;;;;;;;;;5.59;70.96;98352.81;4972418;28;19933;-63
2023/01/10 08:15:48;;;;;;;;;;;;;;;5.43;71.69;98359.25;4961080;28;20414;-62
2023/01/10 08:18:17;;;;;;;;;;;;;;;5.35;72.63;98354.41;4970355;28;20478;-62
2023/01/10 08:20:47;;;;;;;;;;;;;;;5.48;72.06;98353.88;4970545;28;20279;-62
2023/01/10 08:23:14;;;;;;;;;;;;;;;5.54;71.67;98358.22;4981571;28;19934;-63
2023/01/10 08:25:42;;;;;;;;;;;;;;;5.50;71.54;98362.53;4970770;28;19941;-63
2023/01/10 08:28:35;;;;;;;;;;;;;;;5.50;71.23;98359.81;4963782;28;20380;-63
2023/01/10 08:31:07;;;;;;;;;;;;;;;5.49;72.02;98358.22;4955600;28;20020;-63
2023/01/10 08:33:37;;;;;;;;;;;;;;;5.56;71.26;98368.72;4966672;28;19937;-63
2023/01/10 08:36:06;;;;;;;;;;;;;;;5.65;70.81;98373.31;4965878;28;19941;-63
2023/01/10 08:38:34;;;;;;;;;;;;;;;5.62;70.65;98379.25;4969302;28;19930;-64
2023/01/10 08:41:26;;;;;;;;;;;;;;;5.60;71.59;98386.78;4965778;28;20061;-63
2023/01/10 08:43:56;;;;;;;;;;;;;;;5.64;70.57;98397.84;4964638;28;19926;-63
2023/01/10 08:46:24;;;;;;;;;;;;;;;5.59;70.79;98395.94;4963222;28;19925;-63
2023/01/10 08:48:52;;;;;;;;;;;;;;;5.45;71.01;98392.16;4964369;28;19926;-63
2023/01/10 08:51:22;;;;;;;;;;;;;;;5.50;71.06;98395.66;4958770;28;19926;-63
2023/01/10 08:54:14;;;;;;;;;;;;;;;5.44;71.27;98383.25;4974976;28;19932;-63
2023/01/10 08:56:42;;;;;;;;;;;;;;;5.49;71.16;98385.97;5011132;28;19933;-62
2023/01/10 08:59:09;;;;;;;;;;;;;;;5.59;70.86;98392.44;5001469;28;19930;-63
2023/01/10 09:02:03;;;;;;;;;;;;;;;5.58;70.91;98397.00;4978358;28;20008;-63
2023/01/10 09:04:34;;;;;;;;;;;;;;;5.60;70.50;98400.28;5010593;28;19925;-63
2023/01/10 09:07:06;;;;;;;;;;;;;;;5.62;70.01;98411.59;5005556;28;20016;-63
2023/01/10 09:09:36;;;;;;;;;;;;;;;5.53;70.89;98416.69;5011259;28;19926;-64
2023/01/10 09:12:53;;;;;;;;;;;;;;;5.59;70.41;98427.47;5010691;28;19926;-63
2023/01/10 09:14:53;;;;;;;;;;;;;;;5.59;70.42;98430.16;4988332;28;19995;-63
2023/01/10 09:17:21;;;;;;;;;;;;;;;5.58;70.57;98440.13;4997362;28;19925;-63
2023/01/10 09:19:49;;;;;;;;;;;;;;;5.67;69.99;98443.94;5009788;28;19968;-63
2023/01/10 09:22:18;;;;;;;;;;;;;;;5.64;70.01;98454.44;5006592;28;19929;-63
2023/01/10 09:24:47;;;;;;;;;;;;;;;5.68;70.14;98469.81;5007299;28;19930;-63
2023/01/10 09:30:07;;;;;;;;;;;;;;;5.59;69.81;98468.72;4999997;28;20302;-65
2023/01/10 09:32:35;;;;;;;;;;;;;;;5.61;69.46;98465.78;5006390;28;19925;-64
2023/01/10 09:35:03;;;;;;;;;;;;;;;5.54;69.64;98463.34;5003123;28;19937;-65
2023/01/10 09:37:33;;;;;;;;;;;;;;;5.60;70.46;98464.16;4986020;28;19932;-65
2023/01/10 09:40:01;;;;;;;;;;;;;;;5.67;69.75;98478.19;5010193;28;19925;-65
2023/01/10 09:42:31;;;;;;;;;;;;;;;5.70;69.83;98473.06;5003796;28;19933;-64
2023/01/10 09:45:27;;;;;;;;;;;;;;;5.66;69.94;98471.97;5002750;28;19933;-64
2023/01/10 09:47:55;;;;;;;;;;;;;;;5.68;69.87;98469.81;5005481;28;19926;-65
2023/01/10 09:50:25;;;;;;;;;;;;;;;5.64;70.20;98468.72;5008516;28;19940;-64
2023/01/10 09:52:55;;;;;;;;;;;;;;;5.67;70.02;98478.19;5001845;28;19956;-64
2023/01/10 09:55:25;;;;;;;;;;;;;;;5.71;69.95;98488.19;5009411;28;19934;-64
2023/01/10 09:57:53;;;;;;;;;;;;;;;5.74;70.14;98484.94;5009089;28;20275;-64
2023/01/10 10:00:45;;;;;;;;;;;;;;;5.71;69.96;98473.88;4982609;28;20430;-62
2023/01/10 10:06:08;;;;;;;;;;;;;;;5.92;69.35;98456.72;5005285;28;20346;-64
2023/01/10 10:08:43;;;;;;;;;;;;;;;5.93;69.06;98460.22;4989920;28;20410;-64
2023/01/10 10:11:19;;;;;;;;;;;;;;;5.93;69.04;98450.22;4989288;28;19929;-64
2023/01/10 10:13:49;;;;;;;;;;;;;;;5.97;68.01;98447.81;4990925;28;20032;-64
2023/01/10 10:16:21;;;;;;;;;;;;;;;6.07;67.12;98444.28;4999147;28;20394;-64
2023/01/10 10:18:51;;;;;;;;;;;;;;;6.11;67.51;98451.59;5004460;28;20330;-64
2023/01/10 10:21:21;;;;;;;;;;;;;;;6.10;67.31;98471.56;4984537;28;19945;-63
2023/01/10 10:24:00;;;;;;;;;;;;;;;5.99;67.25;98472.63;5004265;28;20461;-64
2023/01/10 10:26:33;;;;;;;;;;;;;;;5.91;67.68;98473.09;5006801;28;19980;-64
2023/01/10 10:29:19;;;;;;;;;;;;;;;5.97;67.48;98482.88;4990471;28;19933;-64
2023/01/10 10:31:50;;;;;;;;;;;;;;;5.88;67.50;98490.63;4984641;28;20388;-64
2023/01/10 10:34:21;;;;;;;;;;;;;;;5.91;66.72;98495.53;5009125;28;19929;-64
2023/01/10 10:36:49;;;;;;;;;;;;;;;5.89;67.23;98494.13;5007758;28;19926;-64
2023/01/10 10:39:19;;;;;;;;;;;;;;;5.89;66.97;98502.22;4990189;28;19936;-64
2023/01/10 10:41:48;;;;;;;;;;;;;;;5.92;66.96;98502.56;5009889;28;19936;-64
2023/01/10 10:44:31;;;;;;;;;;;;;;;5.94;67.42;98496.88;4993582;28;19936;-64
2023/01/10 10:47:06;;;;;;;;;;;;;;;5.96;66.78;98508.19;5005025;28;19926;-64
2023/01/10 10:49:38;;;;;;;;;;;;;;;5.97;66.92;98499.88;5012439;28;19926;-64
2023/01/10 10:52:12;;;;;;;;;;;;;;;5.96;66.50;98503.63;5009208;28;19926;-64
2023/01/10 10:54:42;;;;;;;;;;;;;;;6.08;66.21;98502.59;4988848;28;20723;-64
2023/01/10 10:57:10;;;;;;;;;;;;;;;6.06;65.59;98508.22;4988444;28;19929;-64
2023/01/10 10:59:38;;;;;;;;;;;;;;;6.04;65.62;98513.09;4995749;28;19926;-64
2023/01/10 11:02:12;;;;;;;;;;;;;;;6.04;64.81;98515.78;4986387;28;20295;-64
2023/01/10 11:04:40;;;;;;;;;;;;;;;5.97;65.38;98515.25;5001964;28;19965;-64
2023/01/10 11:07:09;;;;;;;;;;;;;;;6.11;65.11;98515.53;4991134;28;19930;-64
2023/01/10 11:09:37;;;;;;;;;;;;;;;6.04;65.39;98516.59;4994037;28;19945;-64
2023/01/10 11:12:11;;;;;;;;;;;;;;;6.06;64.84;98518.22;4991697;28;19926;-64
2023/01/10 11:14:40;;;;;;;;;;;;;;;6.08;64.89;98524.97;4989647;28;19934;-63
2023/01/10 11:17:18;;;;;;;;;;;;;;;6.10;64.95;98503.91;4984698;28;20304;-64
2023/01/10 11:19:54;;;;;;;;;;;;;;;6.15;64.84;98506.63;4985962;28;19977;-64
2023/01/10 11:22:24;;;;;;;;;;;;;;;6.28;63.76;98514.22;4991951;28;19948;-63
2023/01/10 11:24:54;;;;;;;;;;;;;;;6.26;63.29;98515.53;4993096;28;19925;-64
2023/01/10 11:27:27;;;;;;;;;;;;;;;6.21;63.45;98516.34;4991656;28;19933;-63
2023/01/10 11:29:56;;;;;;;;;;;;;;;6.23;63.09;98514.22;4993085;28;19926;-63
2023/01/10 11:32:26;;;;;;;;;;;;;;;6.24;62.98;98523.13;4985542;28;19926;-64
2023/01/10 11:34:57;;;;;;;;;;;;;;;6.14;63.68;98515.81;4992828;28;19926;-64
2023/01/10 11:37:28;;;;;;;;;;;;;;;6.21;63.40;98527.13;4988584;28;19930;-64
2023/01/10 11:40:22;;;;;;;;;;;;;;;6.22;63.30;98515.25;4992042;28;19933;-64
2023/01/10 11:42:54;;;;;;;;;;;;;;;6.27;62.73;98520.66;4986026;28;19925;-64
2023/01/10 11:45:30;;;;;;;;;;;;;;;6.32;62.16;98505.56;4987623;28;20328;-64
2023/01/10 11:48:00;;;;;;;;;;;;;;;6.34;62.01;98504.22;4989509;28;20342;-64
2023/01/10 11:50:28;;;;;;;;;;;;;;;6.40;61.68;98507.75;4992430;28;19929;-64
2023/01/10 11:52:57;;;;;;;;;;;;;;;6.36;61.52;98506.66;4990677;28;19937;-64
2023/01/10 11:55:26;;;;;;;;;;;;;;;6.26;61.78;98513.66;5010246;28;19933;-64
2023/01/10 11:57:56;;;;;;;;;;;;;;;6.19;61.94;98509.63;5011209;28;19925;-64
2023/01/10 12:00:48;;;;;;;;;;;;;;;6.14;62.52;98513.09;5002104;28;19941;-64
2023/01/10 12:03:41;;;;;;;;;;;;;;;6.23;62.04;98524.16;5009802;28;19933;-64
2023/01/10 12:06:14;;;;;;;;;;;;;;;6.17;62.79;98520.66;4992220;28;20479;-64
2023/01/10 12:08:43;;;;;;;;;;;;;;;6.20;63.06;98528.22;5013211;28;20441;-64
2023/01/10 12:11:23;;;;;;;;;;;;;;;6.31;62.31;98523.66;4990042;28;20585;-64
2023/01/10 12:13:53;;;;;;;;;;;;;;;6.28;62.76;98522.31;5009436;28;19980;-64
2023/01/10 12:16:23;;;;;;;;;;;;;;;6.33;62.71;98524.19;4987301;28;19941;-64
2023/01/10 12:18:51;;;;;;;;;;;;;;;6.41;62.63;98520.16;5012209;28;19932;-64
2023/01/10 12:21:20;;;;;;;;;;;;;;;6.25;62.89;98525.53;4990312;28;19926;-64
2023/01/10 12:23:48;;;;;;;;;;;;;;;6.20;63.33;98517.44;4990576;28;19948;-63
2023/01/10 12:26:17;;;;;;;;;;;;;;;6.25;62.61;98522.84;4990653;28;20250;-64
2023/01/10 12:28:47;;;;;;;;;;;;;;;6.21;62.66;98516.34;4991970;28;20315;-63
2023/01/10 12:31:17;;;;;;;;;;;;;;;6.29;62.47;98525.81;5003629;28;19948;-64
2023/01/10 12:33:46;;;;;;;;;;;;;;;6.23;62.57;98516.06;5009123;28;19934;-64
2023/01/10 12:36:16;;;;;;;;;;;;;;;6.15;62.88;98517.41;5012666;28;19932;-63
2023/01/10 12:39:03;;;;;;;;;;;;;;;6.15;63.19;98522.81;5009120;28;20305;-63
2023/01/10 12:44:21;;;;;;;;;;;;;;;6.14;63.20;98513.09;4992729;28;19972;-64
2023/01/10 12:46:51;;;;;;;;;;;;;;;6.28;62.51;98505.28;5003987;28;19925;-63
2023/01/10 12:49:35;;;;;;;;;;;;;;;6.25;62.87;98511.22;5008728;28;19932;-63
2023/01/10 12:52:04;;;;;;;;;;;;;;;6.30;62.85;98514.75;5010776;28;20374;-64
2023/01/10 12:54:32;;;;;;;;;;;;;;;6.28;62.51;98521.47;5010640;28;19932;-63
2023/01/10 12:57:00;;;;;;;;;;;;;;;6.32;62.78;98524.44;5012777;28;19948;-64
2023/01/10 12:59:36;;;;;;;;;;;;;;;6.32;63.01;98519.06;5009971;28;19930;-63
2023/01/10 13:02:07;;;;;;;;;;;;;;;6.37;61.93;98519.06;4987430;28;19933;-64
2023/01/10 13:04:35;;;;;;;;;;;;;;;6.33;62.05;98529.56;5013784;28;19957;-64
2023/01/10 13:07:06;;;;;;;;;;;;;;;6.28;63.08;98538.50;5013279;28;19931;-63
2023/01/10 13:09:34;;;;;;;;;;;;;;;6.38;62.48;98526.06;4996443;28;20406;-64
2023/01/10 13:14:57;;;;;;;;;;;;;;;6.38;62.02;98542.28;5009901;28;19926;-64
2023/01/10 13:17:28;;;;;;;;;;;;;;;6.24;62.19;98523.91;5004946;28;19926;-63
2023/01/10 13:20:14;;;;;;;;;;;;;;;6.23;62.51;98530.41;5010220;28;20302;-63
2023/01/10 13:22:42;;;;;;;;;;;;;;;6.20;62.38;98525.53;4990605;28;19930;-64
2023/01/10 13:25:36;;;;;;;;;;;;;;;6.26;62.72;98524.44;5000880;28;20290;-64
2023/01/10 13:28:05;;;;;;;;;;;;;;;6.28;62.61;98525.00;5005124;28;20052;-64
2023/01/10 13:30:36;;;;;;;;;;;;;;;6.31;62.35;98523.66;4998369;28;19929;-64
2023/01/10 13:33:06;;;;;;;;;;;;;;;6.21;62.55;98521.75;4995250;28;19926;-63
2023/01/10 13:35:37;;;;;;;;;;;;;;;6.25;61.99;98524.72;5005044;28;19925;-63
2023/01/10 13:38:05;;;;;;;;;;;;;;;6.13;62.54;98516.88;5008881;28;19936;-64
2023/01/10 13:40:33;;;;;;;;;;;;;;;6.18;62.81;98522.28;4991998;28;20370;-64
2023/01/10 13:43:18;;;;;;;;;;;;;;;6.20;62.13;98522.81;4987243;28;19930;-64
2023/01/10 13:45:47;;;;;;;;;;;;;;;6.26;61.56;98534.44;5004554;28;19929;-63
2023/01/10 13:48:26;;;;;;;;;;;;;;;6.31;60.63;98531.75;5007453;28;20409;-63
2023/01/10 13:50:59;;;;;;;;;;;;;;;6.28;60.43;98524.16;5004726;28;19929;-64
2023/01/10 13:53:43;;;;;;;;;;;;;;;6.29;59.88;98532.03;5011039;28;20374;-64
2023/01/10 13:56:36;;;;;;;;;;;;;;;6.39;59.31;98533.09;4991087;28;19926;-64
2023/01/10 14:02:31;;;;;;;;;;;;;;;6.28;60.19;98537.66;5003802;28;19925;-64
2023/01/10 14:05:23;;;;;;;;;;;;;;;6.25;60.51;98544.41;5014240;28;19932;-64
2023/01/10 14:07:53;;;;;;;;;;;;;;;6.19;61.04;98548.19;5012044;28;19965;-64
2023/01/10 14:10:23;;;;;;;;;;;;;;;6.22;60.92;98549.53;5013943;28;19933;-64
2023/01/10 14:12:51;;;;;;;;;;;;;;;6.22;60.63;98550.34;5012864;28;19925;-64
2023/01/10 14:15:22;;;;;;;;;;;;;;;6.30;61.41;98552.53;5006794;28;19930;-64